Feltonville, Pennsylvania
Current Conditions -  °F | °C
As of 9:54 AM on Friday 28 Nov 2014 (Local Time) from KPHL Reporting Station
Few Clouds Few Clouds  
Wind Chill: 28°   Ceiling: Unl
Heat Index: 37°   Visibility: 10mi
Dew Point: 21°   Wind: 14mph
Humidity: 52%   Direction: 320°NW
Pressure: 30.26"   Gusts: NA
Location:  39.8463°N, 75.374°W
Report Text: KPHL 281454Z 32012KT 10SM FEW033 FEW070 03/M06 A3026 RMK AO2 SLP245 T00281061 51021 $
Loading
Personal Weather Stations






























Interactive Weather Map New forecast layout! Learn more

10-Day Weather Forecast

Advertisements
Track Severe Weather on mobile